Time;durP1;ratioP1;P1;durP2;ratioP2;P2;SDS_P1;SDS_P2;PMS_P1;PMS_P2;Temp;Humidity;BMP_temperature;BMP_pressure;BME280_temperature;BME280_humidity;BME280_pressure;Samples;Min_cycle;Max_cycle;Signal;HPM_P1;HPM_P2
2022/03/28 00:02:08;;;;;;;;;;;;;;;7.01;59.58;100926.38;4422990;32;19994;-88
2022/03/28 00:04:33;;;;;;;;;;;;;;;7.04;59.58;100928.09;4421645;32;20358;-87
2022/03/28 00:06:58;;;;;;;;;;;;;;;6.96;59.58;100929.81;4421446;32;20017;-84
2022/03/28 00:09:24;;;;;;;;;;;;;;;7.11;59.59;100931.56;4421449;32;19985;-84
2022/03/28 00:11:49;;;;;;;;;;;;;;;7.00;59.57;100932.41;4421450;32;20021;-84
2022/03/28 00:14:14;;;;;;;;;;;;;;;6.99;59.58;100928.09;4421656;32;20373;-84
2022/03/28 00:16:40;;;;;;;;;;;;;;;6.87;59.58;100933.25;4421469;32;20025;-83
2022/03/28 00:19:05;;;;;;;;;;;;;;;6.85;59.57;100926.31;4423039;32;20025;-84
2022/03/28 00:21:30;;;;;;;;;;;;;;;6.71;59.56;100923.72;4421402;32;20012;-85
2022/03/28 00:23:55;;;;;;;;;;;;;;;6.75;59.56;100928.03;4422554;32;19980;-85
2022/03/28 00:26:21;;;;;;;;;;;;;;;6.75;59.56;100923.72;4422714;32;20288;-84
2022/03/28 00:28:46;;;;;;;;;;;;;;;6.64;59.56;100920.28;4421337;32;20361;-85
2022/03/28 00:31:11;;;;;;;;;;;;;;;6.54;59.55;100928.84;4421351;32;20731;-84
2022/03/28 00:33:36;;;;;;;;;;;;;;;6.57;59.55;100917.63;4422759;32;19996;-84
2022/03/28 00:36:02;;;;;;;;;;;;;;;6.65;59.56;100916.81;4421091;32;19997;-85
2022/03/28 00:38:27;;;;;;;;;;;;;;;6.63;59.55;100909.91;4422543;32;20034;-84
2022/03/28 00:40:53;;;;;;;;;;;;;;;6.37;59.54;100899.47;4422626;32;19977;-86
2022/03/28 00:43:18;;;;;;;;;;;;;;;6.46;59.55;100904.69;4421260;32;20088;-86
2022/03/28 00:45:43;;;;;;;;;;;;;;;6.38;59.54;100896.00;4422606;32;20371;-86
2022/03/28 00:48:09;;;;;;;;;;;;;;;6.20;59.54;100912.34;4422560;32;19985;-86
2022/03/28 00:50:34;;;;;;;;;;;;;;;6.25;59.53;100897.72;4422450;32;20004;-85
2022/03/28 00:52:59;;;;;;;;;;;;;;;6.41;59.55;100894.34;4421074;32;19978;-85
2022/03/28 00:55:25;;;;;;;;;;;;;;;6.42;59.54;100892.59;4407538;32;20005;-86
2022/03/28 00:57:50;;;;;;;;;;;;;;;6.30;59.54;100888.25;4418963;32;20012;-86
2022/03/28 01:00:15;;;;;;;;;;;;;;;6.32;59.54;100888.25;4420807;32;21864;-85
2022/03/28 01:02:41;;;;;;;;;;;;;;;6.25;59.53;100887.38;4421068;32;19978;-86
2022/03/28 01:05:06;;;;;;;;;;;;;;;6.32;59.54;100894.28;4421072;32;19993;-86
2022/03/28 01:07:31;;;;;;;;;;;;;;;6.19;59.53;100881.31;4420962;32;19981;-86
2022/03/28 01:09:59;;;;;;;;;;;;;;;6.28;59.54;100883.94;4421019;32;19989;-87
2022/03/28 01:12:27;;;;;;;;;;;;;;;6.28;59.54;100878.75;4422596;32;20353;-86
2022/03/28 01:14:53;;;;;;;;;;;;;;;6.30;59.54;100871.88;4421138;32;20041;-86
2022/03/28 01:20:02;;;;;;;;;;;;;;;6.17;59.53;100876.16;4421120;32;20725;-86
2022/03/28 01:22:28;;;;;;;;;;;;;;;6.09;59.53;100865.75;4422523;32;20331;-86
2022/03/28 01:24:58;;;;;;;;;;;;;;;6.07;59.53;100870.06;4420602;32;20747;-86
2022/03/28 01:27:23;;;;;;;;;;;;;;;6.11;59.52;100865.75;4408280;32;20013;-87
2022/03/28 01:29:49;;;;;;;;;;;;;;;6.10;59.53;100862.31;4408094;32;20336;-87
2022/03/28 01:32:14;;;;;;;;;;;;;;;6.04;59.52;100869.19;4420252;32;31536;-85
2022/03/28 01:34:39;;;;;;;;;;;;;;;6.22;59.54;100860.66;4420480;32;21074;-85
2022/03/28 01:37:04;;;;;;;;;;;;;;;6.03;59.52;100860.56;4421133;32;20020;-87
2022/03/28 01:39:31;;;;;;;;;;;;;;;5.89;59.51;100848.41;4408383;32;20017;-87
2022/03/28 01:41:56;;;;;;;;;;;;;;;5.97;59.52;100857.97;4421377;32;20039;-87
2022/03/28 01:44:21;;;;;;;;;;;;;;;5.95;59.52;100854.50;4422448;32;19989;-87
2022/03/28 01:46:47;;;;;;;;;;;;;;;5.91;59.52;100851.88;4422309;32;20016;-87
2022/03/28 01:49:12;;;;;;;;;;;;;;;5.81;59.51;100849.22;4421143;32;19969;-88
2022/03/28 01:51:38;;;;;;;;;;;;;;;5.58;59.50;100843.09;4394560;32;20353;-86
2022/03/28 01:54:03;;;;;;;;;;;;;;;5.64;59.50;100850.84;4405508;32;19990;-89
2022/03/28 01:56:29;;;;;;;;;;;;;;;5.55;59.50;100850.81;4405947;32;20001;-90
2022/03/28 01:58:54;;;;;;;;;;;;;;;5.70;59.51;100847.47;4405825;32;20312;-89
2022/03/28 02:01:19;;;;;;;;;;;;;;;5.63;59.50;100836.22;4405611;32;19990;-90
2022/03/28 02:03:44;;;;;;;;;;;;;;;5.75;59.50;100840.59;4406742;32;20009;-87
2022/03/28 02:06:10;;;;;;;;;;;;;;;5.69;59.51;100840.56;4406321;32;20017;-86
2022/03/28 02:08:35;;;;;;;;;;;;;;;5.40;59.49;100842.97;4405234;32;22400;-87
2022/03/28 02:11:00;;;;;;;;;;;;;;;5.39;59.49;100847.25;4405383;32;20029;-86
2022/03/28 02:13:26;;;;;;;;;;;;;;;5.47;59.49;100835.28;4405527;32;19994;-87
2022/03/28 02:15:51;;;;;;;;;;;;;;;5.43;59.48;100845.56;4405671;32;20002;-89
2022/03/28 02:18:16;;;;;;;;;;;;;;;5.46;59.48;100837.88;4405550;32;20379;-89
2022/03/28 02:20:41;;;;;;;;;;;;;;;5.29;59.47;100836.87;4406467;32;20017;-88
2022/03/28 02:23:07;;;;;;;;;;;;;;;5.30;59.47;100836.03;4406022;32;27890;-88
2022/03/28 02:25:35;;;;;;;;;;;;;;;5.42;59.48;100839.53;4404806;32;22676;-88
2022/03/28 02:28:01;;;;;;;;;;;;;;;5.32;59.48;100840.34;4405367;32;19977;-88
2022/03/28 02:30:27;;;;;;;;;;;;;;;5.10;59.47;100835.88;4405334;32;19986;-89
2022/03/28 02:32:52;;;;;;;;;;;;;;;5.15;59.46;100829.87;4405216;32;20052;-88
2022/03/28 02:35:17;;;;;;;;;;;;;;;5.26;59.48;100832.56;4405113;32;19986;-88
2022/03/28 02:37:43;;;;;;;;;;;;;;;5.10;59.47;100830.72;4404830;32;21542;-89
2022/03/28 02:40:08;;;;;;;;;;;;;;;5.18;59.48;100826.47;4406421;32;19982;-89
2022/03/28 02:42:34;;;;;;;;;;;;;;;5.11;59.47;100835.03;4405103;32;19982;-89
2022/03/28 02:44:59;;;;;;;;;;;;;;;5.18;59.47;100837.66;4404917;32;20009;-89
2022/03/28 02:47:24;;;;;;;;;;;;;;;5.03;59.46;100829.81;4405006;32;20276;-88
2022/03/28 02:49:50;;;;;;;;;;;;;;;5.16;59.46;100830.75;4405060;32;20062;-89
2022/03/28 02:52:15;;;;;;;;;;;;;;;5.07;59.46;100831.56;4405093;32;20230;-88
2022/03/28 02:54:41;;;;;;;;;;;;;;;5.02;59.47;100828.09;4404979;32;20335;-88
2022/03/28 02:57:06;;;;;;;;;;;;;;;4.97;59.46;100824.63;4405119;32;19974;-89
2022/03/28 02:59:31;;;;;;;;;;;;;;;4.87;59.46;100828.81;4404790;32;20318;-89
2022/03/28 03:01:56;;;;;;;;;;;;;;;4.96;59.46;100822.00;4404982;32;20000;-89
2022/03/28 03:04:22;;;;;;;;;;;;;;;5.01;59.46;100828.06;4405221;32;20029;-90
2022/03/28 03:06:47;;;;;;;;;;;;;;;4.99;59.46;100825.47;4404703;32;20001;-88
2022/03/28 03:09:12;;;;;;;;;;;;;;;5.01;59.46;100830.66;4404560;32;20005;-89
2022/03/28 03:11:40;;;;;;;;;;;;;;;4.96;59.46;100828.00;4404365;32;21362;-88
2022/03/28 03:14:05;;;;;;;;;;;;;;;4.99;59.46;100830.66;4405111;32;20008;-87
2022/03/28 03:16:30;;;;;;;;;;;;;;;4.85;59.45;100832.25;4404118;32;29919;-87
2022/03/28 03:18:56;;;;;;;;;;;;;;;4.90;59.45;100827.97;4405368;32;20033;-87
2022/03/28 03:21:21;;;;;;;;;;;;;;;4.92;59.45;100829.72;4406714;32;20339;-87
2022/03/28 03:23:46;;;;;;;;;;;;;;;4.70;59.44;100829.50;4406788;32;20012;-87
2022/03/28 03:26:11;;;;;;;;;;;;;;;4.74;59.45;100828.72;4406819;32;19989;-87
2022/03/28 03:28:37;;;;;;;;;;;;;;;4.75;59.45;100833.03;4406829;32;20036;-87
2022/03/28 03:31:02;;;;;;;;;;;;;;;4.60;59.44;100820.84;4407852;32;20014;-88
2022/03/28 03:33:27;;;;;;;;;;;;;;;4.59;59.44;100816.53;4406734;32;20260;-87
2022/03/28 03:35:53;;;;;;;;;;;;;;;4.65;59.45;100820.88;4406635;32;19978;-87
2022/03/28 03:38:19;;;;;;;;;;;;;;;4.62;59.44;100822.56;4406785;32;19998;-88
2022/03/28 03:40:44;;;;;;;;;;;;;;;4.49;59.44;100820.72;4406466;32;20002;-88
2022/03/28 03:43:09;;;;;;;;;;;;;;;4.52;59.44;100823.34;4406536;32;20016;-88
2022/03/28 03:45:35;;;;;;;;;;;;;;;4.32;59.42;100817.13;4406530;32;20358;-89
2022/03/28 03:48:00;;;;;;;;;;;;;;;4.53;59.44;100816.47;4406142;32;21241;-88
2022/03/28 03:50:25;;;;;;;;;;;;;;;4.57;59.44;100816.53;4407503;32;20016;-88
2022/03/28 03:52:51;;;;;;;;;;;;;;;4.65;59.45;100811.41;4406537;32;20048;-89
2022/03/28 03:55:17;;;;;;;;;;;;;;;4.37;59.43;100817.16;4407995;32;20049;-88
2022/03/28 03:57:42;;;;;;;;;;;;;;;4.41;59.43;100819.78;4406659;32;19986;-88
2022/03/28 04:00:08;;;;;;;;;;;;;;;4.66;59.45;100809.72;4405920;32;24470;-87
2022/03/28 04:02:34;;;;;;;;;;;;;;;4.54;59.43;100813.06;4406592;32;20010;-87
2022/03/28 04:04:59;;;;;;;;;;;;;;;4.44;59.43;100809.50;4406512;32;20221;-87
2022/03/28 04:07:24;;;;;;;;;;;;;;;4.53;59.43;100813.91;4406327;32;19989;-88
2022/03/28 04:09:49;;;;;;;;;;;;;;;4.43;59.44;100817.22;4406263;32;20034;-87
2022/03/28 04:12:15;;;;;;;;;;;;;;;4.57;59.44;100813.94;4407613;32;20001;-88
2022/03/28 04:14:40;;;;;;;;;;;;;;;4.45;59.43;100816.37;4406477;32;20026;-88
2022/03/28 04:17:05;;;;;;;;;;;;;;;4.44;59.43;100813.78;4406037;32;20017;-88
2022/03/28 04:19:30;;;;;;;;;;;;;;;4.46;59.43;100815.53;4407781;32;20025;-86
2022/03/28 04:21:56;;;;;;;;;;;;;;;4.52;59.44;100813.03;4406050;32;20001;-87
2022/03/28 04:24:21;;;;;;;;;;;;;;;4.47;59.43;100816.41;4407395;32;19994;-86
2022/03/28 04:26:46;;;;;;;;;;;;;;;4.40;59.43;100807.75;4406232;32;20287;-89
2022/03/28 04:29:11;;;;;;;;;;;;;;;4.49;59.44;100805.25;4407457;32;19982;-89
2022/03/28 04:31:40;;;;;;;;;;;;;;;4.53;59.43;100801.88;4407346;32;19985;-88
2022/03/28 04:34:07;;;;;;;;;;;;;;;4.26;59.41;100801.59;4406028;32;19978;-89
2022/03/28 04:36:32;;;;;;;;;;;;;;;4.39;59.42;100806.03;4406031;32;20045;-88
2022/03/28 04:38:57;;;;;;;;;;;;;;;4.35;59.42;100808.56;4405452;32;25664;-90
2022/03/28 04:41:22;;;;;;;;;;;;;;;4.34;59.42;100802.53;4406163;32;19994;-89
2022/03/28 04:43:48;;;;;;;;;;;;;;;4.42;59.44;100798.31;4406104;32;20507;-89
2022/03/28 04:46:13;;;;;;;;;;;;;;;4.44;59.43;100799.19;4405672;32;19997;-89
2022/03/28 04:48:38;;;;;;;;;;;;;;;4.50;59.44;100793.25;4405911;32;20010;-88
2022/03/28 04:51:04;;;;;;;;;;;;;;;4.42;59.42;100800.03;4406164;32;19998;-91
2022/03/28 04:53:29;;;;;;;;;;;;;;;4.40;59.43;100800.03;4406371;32;19993;-90
2022/03/28 04:55:54;;;;;;;;;;;;;;;4.46;59.43;100802.66;4405680;32;20591;-89
2022/03/28 04:58:20;;;;;;;;;;;;;;;4.49;59.44;100799.22;4405764;32;20309;-90
2022/03/28 05:00:45;;;;;;;;;;;;;;;4.47;59.43;100799.22;4407441;32;20019;-89
2022/03/28 05:03:10;;;;;;;;;;;;;;;4.49;59.44;100801.81;4406235;32;20021;-89
2022/03/28 05:05:35;;;;;;;;;;;;;;;4.54;59.43;100808.75;4407483;32;19974;-91
2022/03/28 05:08:01;;;;;;;;;;;;;;;4.48;59.43;100811.25;4405891;32;20017;-90
2022/03/28 05:10:26;;;;;;;;;;;;;;;4.67;59.44;100807.13;4405551;32;20020;-89
2022/03/28 05:12:52;;;;;;;;;;;;;;;4.70;59.44;100809.75;4405778;32;20385;-89
2022/03/28 05:15:18;;;;;;;;;;;;;;;4.78;59.44;100809.84;4405389;32;20042;-89
2022/03/28 05:17:43;;;;;;;;;;;;;;;4.96;59.46;100803.94;4405199;32;30142;-90
2022/03/28 05:20:09;;;;;;;;;;;;;;;5.01;59.46;100807.44;4407310;32;19986;-95
2022/03/28 05:22:34;;;;;;;;;;;;;;;4.96;59.46;100801.34;4409415;32;19974;-95
2022/03/28 05:24:59;;;;;;;;;;;;;;;5.06;59.46;100798.88;4409534;32;19982;-96
2022/03/28 05:27:25;;;;;;;;;;;;;;;5.38;59.48;100791.31;4409739;32;20347;-95
2022/03/28 05:29:50;;;;;;;;;;;;;;;5.55;59.50;100797.44;4409821;32;20029;-95
2022/03/28 05:32:16;;;;;;;;;;;;;;;5.89;59.51;100792.41;4409389;32;19978;-95
2022/03/28 05:34:41;;;;;;;;;;;;;;;5.85;59.51;100793.25;4409261;32;19982;-95
2022/03/28 05:37:09;;;;;;;;;;;;;;;6.05;59.53;100795.97;4409320;32;20756;-96
2022/03/28 05:39:34;;;;;;;;;;;;;;;6.13;59.53;100786.50;4409342;32;20684;-95
2022/03/28 05:42:00;;;;;;;;;;;;;;;6.27;59.54;100787.41;4409011;32;19978;-95
2022/03/28 05:44:25;;;;;;;;;;;;;;;6.36;59.54;100789.13;4409284;32;19974;-95
2022/03/28 05:46:51;;;;;;;;;;;;;;;6.52;59.55;100792.63;4409168;32;20038;-95
2022/03/28 05:49:16;;;;;;;;;;;;;;;6.56;59.54;100796.91;4409524;32;20057;-95
2022/03/28 05:51:41;;;;;;;;;;;;;;;6.77;59.56;100794.34;4409117;32;20331;-95
2022/03/28 05:54:07;;;;;;;;;;;;;;;6.96;59.58;100790.91;4409690;32;19985;-95
2022/03/28 05:56:32;;;;;;;;;;;;;;;7.02;59.58;100793.47;4409293;32;20002;-94
2022/03/28 05:58:57;;;;;;;;;;;;;;;7.06;59.59;100783.97;4406556;32;20001;-84
2022/03/28 06:01:23;;;;;;;;;;;;;;;7.44;59.60;100778.72;4405732;32;20008;-92
2022/03/28 06:03:48;;;;;;;;;;;;;;;7.49;59.61;100787.34;4407680;32;19988;-93
2022/03/28 06:06:13;;;;;;;;;;;;;;;7.57;59.61;100776.94;4408038;32;20316;-93
2022/03/28 06:08:39;;;;;;;;;;;;;;;7.72;59.62;100770.88;4408371;32;19997;-94
2022/03/28 06:11:04;;;;;;;;;;;;;;;7.94;59.63;100777.69;4407818;32;19974;-93
2022/03/28 06:13:30;;;;;;;;;;;;;;;8.42;59.65;100773.09;4408213;32;19974;-93
2022/03/28 06:15:55;;;;;;;;;;;;;;;8.74;59.66;100765.06;4408045;32;20020;-93
2022/03/28 06:18:21;;;;;;;;;;;;;;;8.92;59.69;100759.72;4407595;32;20041;-94
2022/03/28 06:20:46;;;;;;;;;;;;;;;9.09;59.69;100765.63;4406291;32;19982;-94
2022/03/28 06:23:12;;;;;;;;;;;;;;;9.22;59.70;100761.16;4406088;32;19998;-93
2022/03/28 06:25:37;;;;;;;;;;;;;;;9.27;59.70;100759.41;4406429;32;20012;-94
2022/03/28 06:28:03;;;;;;;;;;;;;;;9.62;59.72;100756.38;4406545;32;20019;-93
2022/03/28 06:30:28;;;;;;;;;;;;;;;9.90;59.74;100751.69;4406285;32;20367;-94
2022/03/28 06:32:53;;;;;;;;;;;;;;;10.20;59.76;100754.78;4406121;32;20011;-94
2022/03/28 06:35:18;;;;;;;;;;;;;;;10.32;59.77;100749.41;4405953;32;19998;-93
2022/03/28 06:37:43;;;;;;;;;;;;;;;10.45;59.77;100753.56;4406057;32;20319;-93
2022/03/28 06:40:09;;;;;;;;;;;;;;;10.65;59.78;100745.44;4405923;32;20008;-93
2022/03/28 06:42:34;;;;;;;;;;;;;;;10.73;59.78;100747.00;4406004;32;20044;-93
2022/03/28 06:44:59;;;;;;;;;;;;;;;10.88;59.79;100742.41;4405443;32;20036;-93
2022/03/28 06:47:25;;;;;;;;;;;;;;;11.10;59.81;100746.34;4405858;32;19982;-92
2022/03/28 06:49:50;;;;;;;;;;;;;;;11.28;59.81;100737.34;4405808;32;20638;-94
2022/03/28 06:52:15;;;;;;;;;;;;;;;11.42;59.82;100743.16;4405699;32;20370;-94
2022/03/28 06:54:41;;;;;;;;;;;;;;;11.57;59.83;100736.75;4407449;32;20017;-94
2022/03/28 06:57:06;;;;;;;;;;;;;;;11.58;59.83;100738.47;4407594;32;20374;-93
2022/03/28 06:59:31;;;;;;;;;;;;;;;11.65;59.83;100734.88;4407507;32;19981;-92
2022/03/28 07:01:57;;;;;;;;;;;;;;;11.69;59.84;100734.78;4407786;32;20012;-91
2022/03/28 07:04:22;;;;;;;;;;;;;;;11.87;59.84;100733.56;4407774;32;19994;-91
2022/03/28 07:06:48;;;;;;;;;;;;;;;12.01;59.86;100727.16;4407687;32;19997;-93
2022/03/28 07:09:13;;;;;;;;;;;;;;;12.25;59.87;100722.25;4407275;32;19986;-93
2022/03/28 07:11:38;;;;;;;;;;;;;;;12.20;59.87;100716.28;4407619;32;20009;-93
2022/03/28 07:14:03;;;;;;;;;;;;;;;12.43;59.89;100715.75;4407330;32;20006;-94
2022/03/28 07:16:29;;;;;;;;;;;;;;;12.70;59.89;100718.56;4407546;32;19982;-93
2022/03/28 07:18:54;;;;;;;;;;;;;;;12.95;59.91;100709.19;4407719;32;20299;-93
2022/03/28 07:21:19;;;;;;;;;;;;;;;13.12;59.92;100713.97;4407575;32;19992;-93
2022/03/28 07:23:44;;;;;;;;;;;;;;;13.21;59.92;100703.28;4407446;32;20050;-93
2022/03/28 07:26:10;;;;;;;;;;;;;;;13.27;59.93;100705.75;4407583;32;20021;-93
2022/03/28 07:28:39;;;;;;;;;;;;;;;13.42;59.93;100700.06;4407127;32;19978;-93
2022/03/28 07:31:05;;;;;;;;;;;;;;;13.56;59.95;100697.06;4407542;32;19982;-93
2022/03/28 07:33:30;;;;;;;;;;;;;;;13.55;59.94;100700.59;4407537;32;19985;-93
2022/03/28 07:35:55;;;;;;;;;;;;;;;13.82;59.96;100698.91;4407216;32;19988;-93
2022/03/28 07:38:22;;;;;;;;;;;;;;;13.84;59.95;100697.09;4407506;32;20026;-93
2022/03/28 07:40:47;;;;;;;;;;;;;;;14.03;59.97;100697.41;4407148;32;20353;-94
2022/03/28 07:43:12;;;;;;;;;;;;;;;14.08;59.97;100703.34;4407524;32;20006;-93
2022/03/28 07:45:37;;;;;;;;;;;;;;;14.15;59.97;100691.78;4406709;32;26685;-91
2022/03/28 07:48:03;;;;;;;;;;;;;;;14.33;59.99;100699.03;4406968;32;20097;-91
2022/03/28 07:50:30;;;;;;;;;;;;;;;14.47;59.98;100690.78;4407196;32;20003;-91
2022/03/28 07:52:56;;;;;;;;;;;;;;;14.73;60.01;100689.91;4407111;32;20344;-91
2022/03/28 07:55:21;;;;;;;;;;;;;;;14.72;60.01;100681.19;4408193;32;20031;-91
2022/03/28 07:57:46;;;;;;;;;;;;;;;14.89;60.02;100679.72;4406964;32;20339;-91
2022/03/28 08:00:13;;;;;;;;;;;;;;;15.07;60.02;100673.00;4406990;32;20319;-91
2022/03/28 08:02:38;;;;;;;;;;;;;;;15.30;60.04;100680.87;4407001;32;20035;-91
2022/03/28 08:05:05;;;;;;;;;;;;;;;15.61;60.05;100680.63;4406841;32;20010;-90
2022/03/28 08:07:30;;;;;;;;;;;;;;;15.59;60.05;100679.84;4407045;32;19986;-91
2022/03/28 08:09:55;;;;;;;;;;;;;;;15.86;60.07;100678.78;4406648;32;20036;-91
2022/03/28 08:12:20;;;;;;;;;;;;;;;16.04;60.08;100666.69;4406999;32;20398;-91
2022/03/28 08:14:46;;;;;;;;;;;;;;;16.15;60.10;100661.03;4407130;32;20005;-91
2022/03/28 08:17:11;;;;;;;;;;;;;;;16.26;60.09;100657.03;4407094;32;19981;-91
2022/03/28 08:19:36;;;;;;;;;;;;;;;16.52;60.11;100661.19;4406917;32;20002;-91
2022/03/28 08:22:02;;;;;;;;;;;;;;;16.53;60.10;100656.81;4406761;32;20398;-91
2022/03/28 08:24:27;;;;;;;;;;;;;;;16.76;60.12;100659.34;4406738;32;20018;-91
2022/03/28 08:26:52;;;;;;;;;;;;;;;16.97;60.13;100654.94;4406630;32;20355;-91
2022/03/28 08:29:17;;;;;;;;;;;;;;;17.00;60.14;100653.94;4406579;32;19973;-91
2022/03/28 08:31:43;;;;;;;;;;;;;;;17.09;60.14;100648.28;4406812;32;20057;-92
2022/03/28 08:34:08;;;;;;;;;;;;;;;17.26;60.15;100650.13;4406510;32;20012;-90
2022/03/28 08:36:36;;;;;;;;;;;;;;;17.40;60.16;100650.37;4406710;32;19996;-92
2022/03/28 08:39:01;;;;;;;;;;;;;;;17.58;60.16;100644.28;4406748;32;19986;-91
2022/03/28 08:41:27;;;;;;;;;;;;;;;17.60;60.17;100636.31;4406750;32;20244;-91
2022/03/28 08:43:52;;;;;;;;;;;;;;;17.69;60.17;100635.88;4406636;32;20021;-91
2022/03/28 08:46:18;;;;;;;;;;;;;;;17.90;60.18;100632.22;4406384;32;20286;-91
2022/03/28 08:48:43;;;;;;;;;;;;;;;17.91;60.18;100635.72;4406471;32;19982;-91
2022/03/28 08:51:08;;;;;;;;;;;;;;;18.02;60.19;100636.94;4406654;32;20319;-91
2022/03/28 08:53:34;;;;;;;;;;;;;;;18.16;60.20;100630.09;4406612;32;20021;-91
2022/03/28 08:56:00;;;;;;;;;;;;;;;18.12;60.19;100623.28;4406419;32;19993;-89
2022/03/28 08:58:25;;;;;;;;;;;;;;;18.18;60.20;100634.38;4406711;32;19988;-92
2022/03/28 09:00:51;;;;;;;;;;;;;;;18.44;60.21;100619.87;4406567;32;20303;-91
2022/03/28 09:03:16;;;;;;;;;;;;;;;18.72;60.23;100618.53;4406688;32;20061;-91
2022/03/28 09:05:47;;;;;;;;;;;;;;;18.95;60.24;100613.75;4406341;32;20012;-92
2022/03/28 09:08:12;;;;;;;;;;;;;;;19.07;60.25;100604.31;4406680;32;19978;-91
2022/03/28 09:10:37;;;;;;;;;;;;;;;19.09;60.25;100613.00;4406203;32;20002;-91
2022/03/28 09:13:09;;;;;;;;;;;;;;;19.23;60.26;100612.28;4406611;32;20272;-91
2022/03/28 09:16:07;;;;;;;;;;;;;;;19.41;60.27;100602.53;4406163;32;20002;-92
2022/03/28 09:18:33;;;;;;;;;;;;;;;19.61;60.28;100610.19;4397631;32;20046;-92
2022/03/28 09:21:02;;;;;;;;;;;;;;;19.63;60.28;100600.41;4406192;32;20245;-92
2022/03/28 09:23:38;;;;;;;;;;;;;;;19.77;60.29;100589.91;4406432;32;20013;-91
2022/03/28 09:26:13;;;;;;;;;;;;;;;19.93;60.29;100589.91;4406530;32;20043;-92
2022/03/28 09:28:52;;;;;;;;;;;;;;;20.07;60.29;100594.38;4406525;32;20045;-92
2022/03/28 09:31:18;;;;;;;;;;;;;;;20.05;60.30;100589.19;4406376;32;19994;-92
2022/03/28 09:33:53;;;;;;;;;;;;;;;20.21;60.31;100591.78;4406325;32;19998;-91
2022/03/28 09:36:32;;;;;;;;;;;;;;;20.32;60.31;100575.28;4406331;32;20295;-92
2022/03/28 09:38:57;;;;;;;;;;;;;;;20.37;60.31;100573.25;4406308;32;19982;-92
2022/03/28 09:41:23;;;;;;;;;;;;;;;20.53;60.33;100568.75;4406499;32;20015;-91
2022/03/28 09:43:52;;;;;;;;;;;;;;;20.70;60.34;100560.66;4406186;32;20367;-91
2022/03/28 09:46:24;;;;;;;;;;;;;;;20.85;60.35;100564.16;4406580;32;20004;-92
2022/03/28 09:48:49;;;;;;;;;;;;;;;20.94;60.35;100554.78;4405787;32;19982;-92
2022/03/28 09:51:16;;;;;;;;;;;;;;;20.99;60.36;100560.66;4406081;32;20295;-91
2022/03/28 09:53:41;;;;;;;;;;;;;;;21.06;60.35;100557.53;4406378;32;19990;-91
2022/03/28 09:56:07;;;;;;;;;;;;;;;21.28;60.36;100546.44;4406328;32;19997;-92
2022/03/28 09:58:42;;;;;;;;;;;;;;;21.40;60.38;100542.19;4405990;32;19978;-92
2022/03/28 10:01:20;;;;;;;;;;;;;;;21.62;60.39;100531.91;4406321;32;20010;-92
2022/03/28 10:03:47;;;;;;;;;;;;;;;21.63;60.39;100533.59;4407406;32;19986;-92
2022/03/28 10:06:12;;;;;;;;;;;;;;;21.82;60.39;100516.50;4406097;32;20000;-91
2022/03/28 10:08:38;;;;;;;;;;;;;;;21.77;60.40;100511.50;4406048;32;19998;-92
2022/03/28 10:11:03;;;;;;;;;;;;;;;21.83;60.39;100511.09;4393027;32;20002;-91
2022/03/28 10:13:30;;;;;;;;;;;;;;;21.97;60.40;100513.66;4406064;32;20394;-92
2022/03/28 10:15:55;;;;;;;;;;;;;;;21.94;60.40;100511.22;4405929;32;20401;-91
2022/03/28 10:18:20;;;;;;;;;;;;;;;22.19;60.41;100507.78;4405946;32;20006;-91
2022/03/28 10:20:46;;;;;;;;;;;;;;;22.19;60.41;100510.44;4405951;32;19986;-90
2022/03/28 10:23:15;;;;;;;;;;;;;;;22.41;60.43;100498.34;4392904;32;20339;-91
2022/03/28 10:25:40;;;;;;;;;;;;;;;22.54;60.43;100493.91;4405783;32;20302;-92
2022/03/28 10:28:06;;;;;;;;;;;;;;;22.65;60.44;100486.03;4392784;32;20247;-92
2022/03/28 10:30:33;;;;;;;;;;;;;;;22.83;60.45;100491.88;4405503;32;19982;-91
2022/03/28 10:33:11;;;;;;;;;;;;;;;22.73;60.44;100478.38;4392968;32;20002;-92
2022/03/28 10:35:37;;;;;;;;;;;;;;;22.87;60.45;100472.09;4393084;32;19982;-91
2022/03/28 10:38:15;;;;;;;;;;;;;;;22.83;60.45;100463.53;4393001;32;19986;-92
2022/03/28 10:40:51;;;;;;;;;;;;;;;22.92;60.45;100457.53;4392824;32;19990;-92
2022/03/28 10:43:17;;;;;;;;;;;;;;;23.01;60.45;100460.50;4392919;32;19997;-91
2022/03/28 10:45:42;;;;;;;;;;;;;;;23.05;60.46;100454.00;4392641;32;19998;-91
2022/03/28 10:48:07;;;;;;;;;;;;;;;;;;4406771;32;19970;-92
2022/03/28 10:50:34;;;;;;;;;;;;;;;23.27;60.47;100446.19;4393089;32;20008;-92
2022/03/28 10:53:03;;;;;;;;;;;;;;;23.16;60.46;100438.13;4392570;32;19994;-92
2022/03/28 10:55:48;;;;;;;;;;;;;;;23.34;60.48;100428.81;4405184;32;19987;-90
2022/03/28 10:58:17;;;;;;;;;;;;;;;23.35;60.48;100427.84;4391552;32;20441;-91
2022/03/28 11:01:01;;;;;;;;;;;;;;;23.45;60.48;100420.06;4406666;32;19998;-91
2022/03/28 11:03:32;;;;;;;;;;;;;;;23.50;60.49;100424.06;4406716;32;19987;-92
2022/03/28 11:05:58;;;;;;;;;;;;;;;23.52;60.48;100415.97;4392738;32;19982;-92
2022/03/28 11:08:32;;;;;;;;;;;;;;;23.66;60.49;100412.28;4392462;32;19985;-94
2022/03/28 11:11:17;;;;;;;;;;;;;;;23.63;60.49;100404.53;4392609;32;20041;-92
2022/03/28 11:13:43;;;;;;;;;;;;;;;23.53;60.48;100394.59;4405371;32;20393;-92
2022/03/28 11:16:20;;;;;;;;;;;;;;;23.70;60.49;100387.19;4405312;32;19994;-91
2022/03/28 11:19:04;;;;;;;;;;;;;;;23.76;60.50;100392.03;4405146;32;19978;-91
2022/03/28 11:21:30;;;;;;;;;;;;;;;23.94;60.50;100385.31;4392611;32;20350;-91
2022/03/28 11:24:15;;;;;;;;;;;;;;;24.05;60.51;100384.44;4404987;32;19982;-90
2022/03/28 11:26:40;;;;;;;;;;;;;;;24.14;60.52;100376.63;4405893;32;19978;-92
2022/03/28 11:29:06;;;;;;;;;;;;;;;24.21;60.53;100358.34;4405057;32;19984;-91
2022/03/28 11:31:31;;;;;;;;;;;;;;;24.32;60.52;100354.84;4392391;32;20088;-91
2022/03/28 11:33:56;;;;;;;;;;;;;;;24.36;60.53;100350.97;4405263;32;20041;-90
2022/03/28 11:36:22;;;;;;;;;;;;;;;24.42;60.53;100343.38;4392196;32;20067;-91
2022/03/28 11:38:49;;;;;;;;;;;;;;;24.31;60.52;100337.22;4405076;32;20010;-90
2022/03/28 11:41:14;;;;;;;;;;;;;;;24.42;60.52;100329.22;4406950;32;20339;-90
2022/03/28 11:43:40;;;;;;;;;;;;;;;24.59;60.55;100314.53;4406962;32;20040;-91
2022/03/28 11:46:12;;;;;;;;;;;;;;;24.59;60.55;100310.06;4406916;32;19974;-90
2022/03/28 11:48:37;;;;;;;;;;;;;;;24.59;60.55;100312.72;4406620;32;20001;-88
2022/03/28 11:51:16;;;;;;;;;;;;;;;24.45;60.53;100310.34;4406762;32;19990;-92
2022/03/28 11:53:42;;;;;;;;;;;;;;;24.34;60.54;100310.34;4394147;32;20010;-90
2022/03/28 11:56:07;;;;;;;;;;;;;;;24.46;60.54;100291.59;4406733;32;20002;-89
2022/03/28 11:58:32;;;;;;;;;;;;;;;24.33;60.53;100284.72;4408091;32;20016;-89
2022/03/28 12:01:07;;;;;;;;;;;;;;;24.27;60.52;100282.53;4406836;32;20009;-90
2022/03/28 12:03:32;;;;;;;;;;;;;;;24.33;60.53;100266.09;4406650;32;19995;-89
2022/03/28 12:05:58;;;;;;;;;;;;;;;24.57;60.53;100265.91;4393739;32;20018;-89
2022/03/28 12:08:24;;;;;;;;;;;;;;;24.59;60.55;100256.81;4407952;32;20028;-90
2022/03/28 12:10:50;;;;;;;;;;;;;;;24.56;60.53;100253.56;4406363;32;20050;-90
2022/03/28 12:13:15;;;;;;;;;;;;;;;24.66;60.54;100243.87;4393957;32;20039;-90
2022/03/28 12:15:45;;;;;;;;;;;;;;;24.63;60.54;100249.44;4406663;32;20050;-89
2022/03/28 12:18:10;;;;;;;;;;;;;;;24.71;60.55;100239.00;4393881;32;20041;-90
2022/03/28 12:20:56;;;;;;;;;;;;;;;24.83;60.56;100243.28;4406753;32;19986;-91
2022/03/28 12:23:22;;;;;;;;;;;;;;;24.88;60.55;100226.94;4407758;32;19982;-91
2022/03/28 12:25:51;;;;;;;;;;;;;;;24.92;60.56;100209.75;4406843;32;19993;-90
2022/03/28 12:28:17;;;;;;;;;;;;;;;24.75;60.55;100216.47;4394085;32;20007;-89
2022/03/28 12:30:47;;;;;;;;;;;;;;;24.80;60.55;100204.47;4394148;32;20339;-90
2022/03/28 12:33:12;;;;;;;;;;;;;;;24.64;60.54;100206.72;4407811;32;19990;-90
2022/03/28 12:35:39;;;;;;;;;;;;;;;24.62;60.54;100208.69;4407942;32;20276;-91
2022/03/28 12:38:04;;;;;;;;;;;;;;;24.70;60.54;100198.22;4393665;32;19988;-91
2022/03/28 12:40:30;;;;;;;;;;;;;;;24.77;60.55;100191.41;4406550;32;19990;-90
2022/03/28 12:42:56;;;;;;;;;;;;;;;24.85;60.56;100185.44;4406363;32;19981;-90